Time;durP1;ratioP1;P1;durP2;ratioP2;P2;SDS_P1;SDS_P2;PMS_P1;PMS_P2;Temp;Humidity;BMP_temperature;BMP_pressure;BME280_temperature;BME280_humidity;BME280_pressure;Samples;Min_cycle;Max_cycle;Signal;HPM_P1;HPM_P2
2023/11/29 00:00:47;;;;;;;9.03;7.03;;;0.20;99.90;;;;;;4851811;29;20229;-73
2023/11/29 00:03:13;;;;;;;11.77;6.53;;;0.20;99.90;;;;;;4855805;29;20184;-72
2023/11/29 00:05:38;;;;;;;8.77;6.97;;;0.20;99.90;;;;;;4849931;29;20237;-71
2023/11/29 00:08:05;;;;;;;10.83;7.30;;;0.20;99.90;;;;;;4848843;29;20261;-71
2023/11/29 00:10:31;;;;;;;10.93;6.67;;;0.10;99.90;;;;;;4850260;29;20197;-71
2023/11/29 00:12:57;;;;;;;8.67;6.23;;;0.10;99.90;;;;;;4841895;29;20453;-70
2023/11/29 00:15:23;;;;;;;9.37;7.17;;;0.10;99.90;;;;;;4841869;29;20538;-72
2023/11/29 00:17:49;;;;;;;10.90;7.53;;;0.10;99.90;;;;;;4849368;29;20284;-73
2023/11/29 00:20:16;;;;;;;10.53;7.37;;;0.10;99.90;;;;;;4850024;29;20494;-72
2023/11/29 00:22:41;;;;;;;12.00;6.90;;;0.10;99.90;;;;;;4862935;29;20442;-71
2023/11/29 00:25:08;;;;;;;9.30;6.47;;;0.00;99.90;;;;;;4848934;29;20453;-71
2023/11/29 00:27:35;;;;;;;8.97;6.57;;;0.00;99.90;;;;;;4849257;29;20326;-71
2023/11/29 00:30:03;;;;;;;10.13;6.00;;;0.00;99.90;;;;;;4849718;29;20411;-71
2023/11/29 00:32:30;;;;;;;9.37;6.33;;;0.00;99.90;;;;;;4851011;29;20418;-71
2023/11/29 00:34:57;;;;;;;8.40;6.37;;;0.00;99.90;;;;;;4849032;29;20890;-70
2023/11/29 00:37:22;;;;;;;9.53;6.80;;;0.00;99.90;;;;;;4848312;29;20450;-70
2023/11/29 00:39:48;;;;;;;9.20;6.00;;;0.10;99.90;;;;;;4848631;29;20197;-72
2023/11/29 00:42:13;;;;;;;10.37;7.00;;;0.10;99.90;;;;;;4846737;29;20210;-70
2023/11/29 00:44:39;;;;;;;7.97;6.07;;;0.00;99.90;;;;;;4843503;29;20205;-70
2023/11/29 00:47:05;;;;;;;10.40;6.43;;;0.00;99.90;;;;;;4840539;29;20249;-70
2023/11/29 00:49:30;;;;;;;9.87;6.23;;;0.00;99.90;;;;;;4845666;29;20189;-71
2023/11/29 00:51:56;;;;;;;9.83;7.23;;;0.10;99.90;;;;;;4845691;29;20193;-69
2023/11/29 00:54:22;;;;;;;9.90;7.40;;;0.10;99.90;;;;;;4844935;29;20197;-70
2023/11/29 00:56:47;;;;;;;10.87;7.50;;;0.10;99.90;;;;;;4844976;29;20199;-71
2023/11/29 00:59:13;;;;;;;10.10;5.90;;;0.10;99.90;;;;;;4839188;29;20201;-70
2023/11/29 01:01:39;;;;;;;10.40;7.00;;;0.20;99.90;;;;;;4875854;29;20255;-70
2023/11/29 01:04:04;;;;;;;9.73;6.70;;;0.20;99.90;;;;;;4846522;29;20272;-71
2023/11/29 01:06:30;;;;;;;10.30;6.70;;;0.20;99.90;;;;;;4845398;29;20667;-70
2023/11/29 01:08:56;;;;;;;8.30;6.60;;;0.30;99.90;;;;;;4875314;29;20197;-71
2023/11/29 01:11:23;;;;;;;10.03;6.93;;;0.30;99.90;;;;;;4844369;29;20908;-70
2023/11/29 01:13:50;;;;;;;9.63;6.40;;;0.30;99.90;;;;;;4839974;29;20443;-69
2023/11/29 01:16:15;;;;;;;7.00;5.50;;;0.40;99.90;;;;;;4840166;29;20598;-69
2023/11/29 01:18:42;;;;;;;7.87;5.43;;;0.40;99.90;;;;;;4845322;29;20845;-69
2023/11/29 01:21:16;;;;;;;7.00;4.70;;;0.50;99.90;;;;;;4844766;29;20221;-69
2023/11/29 01:23:43;;;;;;;7.10;5.63;;;0.50;99.90;;;;;;4843826;29;20410;-70
2023/11/29 01:26:09;;;;;;;8.40;6.07;;;0.60;99.90;;;;;;4843804;29;20450;-71
2023/11/29 01:28:35;;;;;;;7.67;5.47;;;0.60;99.90;;;;;;4839757;29;20430;-70
2023/11/29 01:31:08;;;;;;;8.50;6.00;;;0.70;99.90;;;;;;4844768;29;20220;-71
2023/11/29 01:33:34;;;;;;;10.00;6.10;;;0.80;99.90;;;;;;4845141;29;20487;-70
2023/11/29 01:36:10;;;;;;;7.07;5.57;;;0.80;99.90;;;;;;4843971;29;20541;-70
2023/11/29 01:38:36;;;;;;;9.73;5.97;;;0.90;99.90;;;;;;4845043;29;20506;-70
2023/11/29 01:41:03;;;;;;;7.10;5.70;;;0.90;99.90;;;;;;4844665;29;20543;-70
2023/11/29 01:43:29;;;;;;;9.27;6.27;;;1.00;99.90;;;;;;4840316;29;20434;-71
2023/11/29 01:45:55;;;;;;;7.50;6.10;;;1.00;99.90;;;;;;4843069;29;20454;-70
2023/11/29 01:48:22;;;;;;;8.07;5.47;;;1.00;99.90;;;;;;4845112;29;20434;-70
2023/11/29 01:50:49;;;;;;;8.50;5.90;;;1.00;99.90;;;;;;4843481;29;20304;-70
2023/11/29 01:53:19;;;;;;;8.97;6.50;;;1.00;99.90;;;;;;4844559;29;20952;-70
2023/11/29 01:55:50;;;;;;;8.80;6.50;;;0.90;99.90;;;;;;4843822;29;20454;-69
2023/11/29 01:58:23;;;;;;;9.03;6.53;;;0.80;99.90;;;;;;4841212;29;20490;-72
2023/11/29 02:00:49;;;;;;;10.50;5.77;;;0.70;99.90;;;;;;4846696;29;20470;-72
2023/11/29 02:03:18;;;;;;;8.60;6.30;;;0.60;99.90;;;;;;4847367;29;20445;-71
2023/11/29 02:05:44;;;;;;;8.03;5.53;;;0.50;99.90;;;;;;4847945;29;20498;-72
2023/11/29 02:08:11;;;;;;;9.57;6.50;;;0.50;99.90;;;;;;4848867;29;20434;-69
2023/11/29 02:10:37;;;;;;;9.90;7.20;;;0.50;99.90;;;;;;4849009;29;20454;-74
2023/11/29 02:13:03;;;;;;;8.30;5.53;;;0.40;99.90;;;;;;4848768;29;20438;-70
2023/11/29 02:15:29;;;;;;;9.60;5.67;;;0.40;99.90;;;;;;4848813;29;20469;-71
2023/11/29 02:17:58;;;;;;;9.60;6.60;;;0.40;99.90;;;;;;4848622;29;20486;-69
2023/11/29 02:20:25;;;;;;;8.47;6.77;;;0.40;99.90;;;;;;4846592;29;20629;-69
2023/11/29 02:23:23;;;;;;;8.60;6.83;;;0.40;99.90;;;;;;4849506;29;20440;-71
2023/11/29 02:25:50;;;;;;;8.47;6.87;;;0.40;99.90;;;;;;4859782;29;20453;-71
2023/11/29 02:28:16;;;;;;;6.97;5.50;;;0.40;99.90;;;;;;4846839;29;20870;-68
2023/11/29 02:30:42;;;;;;;10.73;6.37;;;0.30;99.90;;;;;;4841585;29;20425;-69
2023/11/29 02:33:08;;;;;;;8.30;6.10;;;0.30;99.90;;;;;;4847857;29;20229;-70
2023/11/29 02:35:33;;;;;;;8.40;6.40;;;0.20;99.90;;;;;;4849742;29;20224;-71
2023/11/29 02:37:59;;;;;;;10.13;6.97;;;0.20;99.90;;;;;;4847651;29;20597;-71
2023/11/29 02:40:24;;;;;;;10.27;6.57;;;0.20;99.90;;;;;;4847535;29;20220;-69
2023/11/29 02:42:50;;;;;;;9.27;6.67;;;0.20;99.90;;;;;;4846551;29;20201;-71
2023/11/29 02:45:16;;;;;;;9.30;6.73;;;0.10;99.90;;;;;;4841549;29;20222;-69
2023/11/29 02:47:42;;;;;;;8.13;6.07;;;0.10;99.90;;;;;;4844081;29;20185;-71
2023/11/29 02:50:08;;;;;;;9.13;6.90;;;0.10;99.90;;;;;;4848970;29;20537;-68
2023/11/29 02:52:33;;;;;;;8.73;5.87;;;0.00;99.90;;;;;;4850635;29;20200;-69
2023/11/29 02:54:59;;;;;;;10.57;5.90;;;0.00;99.90;;;;;;4850396;29;20444;-70
2023/11/29 02:57:25;;;;;;;10.17;7.03;;;0.00;99.90;;;;;;4847681;29;20207;-69
2023/11/29 02:59:50;;;;;;;11.57;7.60;;;0.00;99.90;;;;;;4846982;29;20209;-69
2023/11/29 03:02:16;;;;;;;10.83;6.77;;;0.00;99.90;;;;;;4850846;29;20185;-71
2023/11/29 03:04:42;;;;;;;11.37;7.03;;;0.00;99.90;;;;;;4848987;29;20221;-71
2023/11/29 03:07:07;;;;;;;8.90;6.37;;;0.00;99.90;;;;;;4847600;29;20197;-70
2023/11/29 03:09:33;;;;;;;11.83;6.27;;;0.00;99.90;;;;;;4847478;29;20190;-69
2023/11/29 03:11:58;;;;;;;8.47;5.70;;;0.00;99.90;;;;;;4847136;29;20197;-72
2023/11/29 03:14:26;;;;;;;8.73;7.20;;;-0.10;99.90;;;;;;4840461;29;20197;-70
2023/11/29 03:16:53;;;;;;;7.73;5.23;;;-0.10;99.90;;;;;;4825595;29;20661;-70
2023/11/29 03:19:18;;;;;;;11.20;7.67;;;-0.10;99.90;;;;;;4848934;29;20707;-68
2023/11/29 03:21:44;;;;;;;12.00;7.70;;;-0.10;99.90;;;;;;4847021;29;20465;-70
2023/11/29 03:24:10;;;;;;;9.80;7.43;;;-0.10;99.90;;;;;;4846607;29;20386;-69
2023/11/29 03:26:42;;;;;;;15.10;8.17;;;-0.10;99.90;;;;;;4850896;29;20205;-71
2023/11/29 03:29:07;;;;;;;12.27;8.13;;;-0.10;99.90;;;;;;4840533;29;20202;-70
2023/11/29 03:31:33;;;;;;;11.30;7.37;;;-0.10;99.90;;;;;;4848166;29;20426;-70
2023/11/29 03:33:59;;;;;;;10.80;7.10;;;-0.10;99.90;;;;;;4847561;29;20196;-71
2023/11/29 03:36:24;;;;;;;11.60;6.90;;;0.00;99.90;;;;;;4846267;29;20295;-69
2023/11/29 03:38:50;;;;;;;8.40;6.20;;;0.00;99.90;;;;;;4847308;29;20197;-69
2023/11/29 03:41:16;;;;;;;9.40;6.73;;;0.10;99.90;;;;;;4846947;29;20765;-70
2023/11/29 03:43:42;;;;;;;10.23;6.37;;;0.20;99.90;;;;;;4840783;29;20201;-71
2023/11/29 03:46:07;;;;;;;10.00;6.33;;;0.30;99.90;;;;;;4842607;29;20220;-69
2023/11/29 03:48:33;;;;;;;9.53;6.57;;;0.30;99.90;;;;;;4876410;29;20669;-69
2023/11/29 03:51:00;;;;;;;10.53;6.60;;;0.40;99.90;;;;;;4845776;29;20204;-69
2023/11/29 03:53:26;;;;;;;14.33;7.20;;;0.50;99.90;;;;;;4846513;29;20261;-69
2023/11/29 03:55:52;;;;;;;12.33;8.03;;;0.50;99.90;;;;;;4846678;29;20862;-71
2023/11/29 03:58:18;;;;;;;12.50;8.30;;;0.60;99.90;;;;;;4841223;29;20659;-70
2023/11/29 04:00:43;;;;;;;14.40;8.80;;;0.60;99.90;;;;;;4845115;29;20569;-71
2023/11/29 04:03:09;;;;;;;9.10;7.30;;;0.60;99.90;;;;;;4846186;29;20189;-69
2023/11/29 04:05:34;;;;;;;13.53;9.03;;;0.70;99.90;;;;;;4845997;29;20316;-70
2023/11/29 04:08:01;;;;;;;11.67;7.47;;;0.80;99.90;;;;;;4844818;29;20722;-71
2023/11/29 04:10:29;;;;;;;13.53;9.70;;;0.80;99.90;;;;;;4845099;29;20197;-68
2023/11/29 04:12:55;;;;;;;17.50;9.10;;;0.90;99.90;;;;;;4841077;29;20912;-69
2023/11/29 04:15:21;;;;;;;13.40;8.50;;;1.00;99.90;;;;;;4844369;29;20481;-70
2023/11/29 04:17:47;;;;;;;11.10;7.40;;;1.10;99.90;;;;;;4845375;29;20430;-69
2023/11/29 04:20:13;;;;;;;14.97;8.10;;;1.10;99.90;;;;;;4844899;29;20484;-69
2023/11/29 04:22:38;;;;;;;12.70;8.23;;;1.10;99.90;;;;;;4845364;29;20506;-69
2023/11/29 04:25:07;;;;;;;12.80;8.80;;;1.20;99.90;;;;;;4845944;29;20230;-70
2023/11/29 04:27:33;;;;;;;11.20;7.70;;;1.20;99.90;;;;;;4841808;29;20435;-68
2023/11/29 04:29:59;;;;;;;15.40;7.27;;;1.20;99.90;;;;;;4830397;29;20427;-72
2023/11/29 04:32:25;;;;;;;12.30;7.87;;;1.20;99.90;;;;;;4875194;29;20433;-68
2023/11/29 04:34:50;;;;;;;12.50;7.50;;;1.20;99.90;;;;;;4845658;29;20273;-69
2023/11/29 04:37:16;;;;;;;10.80;7.53;;;1.20;99.90;;;;;;4844935;29;20616;-69
2023/11/29 04:39:42;;;;;;;10.70;6.20;;;1.30;99.90;;;;;;4845006;29;20193;-70
2023/11/29 04:42:09;;;;;;;13.13;7.80;;;1.30;99.90;;;;;;4843446;29;20308;-71
2023/11/29 04:44:35;;;;;;;8.73;6.30;;;1.40;99.90;;;;;;4875192;29;20978;-71
2023/11/29 04:47:01;;;;;;;9.27;7.03;;;1.40;99.90;;;;;;4835112;29;20197;-70
2023/11/29 04:49:27;;;;;;;9.80;7.23;;;1.50;99.90;;;;;;4845588;29;20438;-70
2023/11/29 04:51:53;;;;;;;11.50;7.10;;;1.50;99.90;;;;;;4845774;29;20430;-70
2023/11/29 04:54:18;;;;;;;9.47;6.70;;;1.60;99.90;;;;;;4845588;29;20632;-69
2023/11/29 04:56:44;;;;;;;7.20;5.33;;;1.60;99.90;;;;;;4845411;29;20590;-71
2023/11/29 04:59:10;;;;;;;8.77;6.87;;;1.60;99.90;;;;;;4844726;29;20562;-71
2023/11/29 05:01:36;;;;;;;11.10;7.37;;;1.60;99.90;;;;;;4846637;29;20545;-70
2023/11/29 05:04:02;;;;;;;10.77;6.70;;;1.60;99.90;;;;;;4847567;29;20181;-70
2023/11/29 05:06:27;;;;;;;8.63;6.23;;;1.70;99.90;;;;;;4849614;29;20317;-70
2023/11/29 05:08:53;;;;;;;13.10;9.10;;;1.70;99.90;;;;;;4848031;29;20549;-71
2023/11/29 05:11:18;;;;;;;11.80;8.00;;;1.80;99.90;;;;;;4848504;29;20317;-72
2023/11/29 05:13:44;;;;;;;13.13;7.53;;;1.80;99.90;;;;;;4842978;29;20234;-70
2023/11/29 05:16:10;;;;;;;11.03;6.80;;;1.90;99.90;;;;;;4845537;29;20232;-70
2023/11/29 05:18:35;;;;;;;13.70;7.30;;;1.90;99.90;;;;;;4847273;29;20192;-72
2023/11/29 05:21:01;;;;;;;10.00;7.17;;;1.90;99.90;;;;;;4846853;29;20225;-70
2023/11/29 05:23:29;;;;;;;10.30;6.13;;;1.90;99.90;;;;;;4847680;29;20189;-70
2023/11/29 05:25:55;;;;;;;12.60;6.50;;;1.80;99.90;;;;;;4848187;29;20224;-70
2023/11/29 05:28:24;;;;;;;10.10;7.87;;;1.80;99.90;;;;;;4839671;29;20882;-69
2023/11/29 05:30:51;;;;;;;10.70;6.50;;;1.80;99.90;;;;;;4844301;29;20458;-71
2023/11/29 05:33:18;;;;;;;9.87;6.70;;;1.70;99.90;;;;;;4878006;29;20512;-71
2023/11/29 05:35:44;;;;;;;14.87;7.10;;;1.70;99.90;;;;;;4849117;29;20587;-71
2023/11/29 05:38:10;;;;;;;14.73;7.90;;;1.60;99.90;;;;;;4847670;29;20430;-71
2023/11/29 05:40:36;;;;;;;10.10;6.70;;;1.60;99.90;;;;;;4877668;29;20485;-70
2023/11/29 05:43:02;;;;;;;9.43;7.27;;;1.60;99.90;;;;;;4871659;29;20744;-70
2023/11/29 05:45:27;;;;;;;9.00;5.40;;;1.60;99.90;;;;;;4843017;29;20209;-71
2023/11/29 05:47:53;;;;;;;10.80;6.23;;;1.50;99.90;;;;;;4847360;29;20426;-70
2023/11/29 05:50:19;;;;;;;10.17;6.00;;;1.50;99.90;;;;;;4848505;29;20185;-70
2023/11/29 05:52:45;;;;;;;12.57;7.50;;;1.50;99.90;;;;;;4847576;29;20236;-69
2023/11/29 05:55:11;;;;;;;10.57;6.90;;;1.40;99.90;;;;;;4847899;29;20442;-70
2023/11/29 05:57:38;;;;;;;11.77;7.00;;;1.40;99.90;;;;;;4847604;29;20209;-71
2023/11/29 06:00:11;;;;;;;10.23;6.87;;;1.40;99.90;;;;;;4848500;29;20430;-74
2023/11/29 06:02:39;;;;;;;9.07;6.37;;;1.40;99.90;;;;;;4848221;29;20727;-71
2023/11/29 06:05:05;;;;;;;9.10;6.40;;;1.40;99.90;;;;;;4848207;29;20506;-71
2023/11/29 06:07:35;;;;;;;9.87;6.47;;;1.30;99.90;;;;;;4849239;29;20269;-72
2023/11/29 06:10:01;;;;;;;9.70;6.40;;;1.30;99.90;;;;;;4849118;29;20464;-73
2023/11/29 06:12:27;;;;;;;13.80;8.00;;;1.30;99.90;;;;;;4874665;29;20919;-69
2023/11/29 06:14:53;;;;;;;11.93;7.70;;;1.30;99.90;;;;;;4842403;29;20442;-70
2023/11/29 06:17:19;;;;;;;10.57;7.43;;;1.50;99.90;;;;;;4846002;29;20184;-72
2023/11/29 06:19:44;;;;;;;13.30;9.17;;;1.50;99.90;;;;;;4847725;29;20497;-71
2023/11/29 06:22:14;;;;;;;13.07;9.07;;;1.60;99.90;;;;;;4848938;29;20232;-71
2023/11/29 06:24:39;;;;;;;14.57;9.57;;;1.70;99.90;;;;;;4849170;29;20705;-71
2023/11/29 06:27:05;;;;;;;15.10;8.87;;;1.80;99.90;;;;;;4852579;29;20513;-71
2023/11/29 06:29:31;;;;;;;14.10;9.40;;;1.90;99.90;;;;;;4846752;29;20178;-71
2023/11/29 06:31:57;;;;;;;17.27;8.43;;;1.90;99.90;;;;;;4850426;29;20233;-70
2023/11/29 06:34:23;;;;;;;14.27;8.40;;;1.90;99.90;;;;;;4852698;29;20340;-72
2023/11/29 06:36:49;;;;;;;20.00;9.87;;;1.90;99.90;;;;;;4853604;29;20426;-74
2023/11/29 06:39:17;;;;;;;15.43;8.50;;;1.90;99.90;;;;;;4853307;29;20632;-74
2023/11/29 06:41:45;;;;;;;18.63;8.57;;;1.90;99.90;;;;;;4852313;29;20469;-74
2023/11/29 06:44:11;;;;;;;12.80;8.63;;;1.90;99.90;;;;;;4848854;29;20433;-71
2023/11/29 06:46:39;;;;;;;11.90;8.00;;;1.90;99.90;;;;;;4850793;29;20517;-72
2023/11/29 06:49:05;;;;;;;13.20;8.83;;;2.00;99.90;;;;;;4883233;29;20903;-75
2023/11/29 06:51:31;;;;;;;13.13;8.90;;;2.00;99.90;;;;;;4852322;29;20510;-75
2023/11/29 06:53:57;;;;;;;14.50;7.63;;;2.00;99.90;;;;;;4852895;29;20442;-73
2023/11/29 06:56:23;;;;;;;12.80;7.50;;;2.00;99.90;;;;;;4855179;29;20458;-73
2023/11/29 06:58:49;;;;;;;12.43;7.57;;;2.10;99.90;;;;;;4853805;29;20510;-74
2023/11/29 07:01:15;;;;;;;9.17;6.20;;;2.10;99.90;;;;;;4854684;29;20220;-72
2023/11/29 07:03:41;;;;;;;11.83;7.43;;;2.10;99.90;;;;;;4851631;29;20433;-72
2023/11/29 07:06:07;;;;;;;9.70;6.50;;;2.10;99.90;;;;;;4852704;29;20466;-71
2023/11/29 07:08:33;;;;;;;9.43;6.10;;;2.10;99.90;;;;;;4852774;29;20212;-76
2023/11/29 07:11:03;;;;;;;9.93;7.07;;;2.10;99.90;;;;;;4851551;29;20422;-72
2023/11/29 07:13:29;;;;;;;9.20;6.00;;;2.00;99.90;;;;;;4852232;29;20201;-75
2023/11/29 07:15:56;;;;;;;10.00;6.47;;;1.90;99.90;;;;;;4858022;29;20504;-73
2023/11/29 07:18:25;;;;;;;8.77;5.90;;;1.80;99.90;;;;;;4837428;29;20436;-75
2023/11/29 07:20:51;;;;;;;11.13;6.70;;;1.70;99.90;;;;;;4851371;29;20566;-74
2023/11/29 07:23:17;;;;;;;11.60;6.90;;;1.60;99.90;;;;;;4852507;29;20813;-73
2023/11/29 07:25:42;;;;;;;10.77;5.87;;;1.60;99.90;;;;;;4852196;29;20295;-75
2023/11/29 07:28:08;;;;;;;9.50;6.80;;;1.50;99.90;;;;;;4849376;29;20204;-72
2023/11/29 07:30:33;;;;;;;10.33;7.03;;;1.50;99.90;;;;;;4845166;29;20204;-73
2023/11/29 07:32:59;;;;;;;12.47;7.37;;;1.40;99.90;;;;;;4850714;29;20197;-72
2023/11/29 07:35:25;;;;;;;12.20;6.93;;;1.40;99.90;;;;;;4852868;29;20220;-75
2023/11/29 07:37:51;;;;;;;11.80;7.87;;;1.40;99.90;;;;;;4851089;29;20247;-74
2023/11/29 07:40:17;;;;;;;12.27;7.73;;;1.40;99.90;;;;;;4851610;29;20461;-72
2023/11/29 07:42:42;;;;;;;11.87;7.70;;;1.50;99.90;;;;;;4878881;29;20227;-71
2023/11/29 07:45:08;;;;;;;13.30;8.03;;;1.50;99.90;;;;;;4846965;29;20220;-71
2023/11/29 07:47:34;;;;;;;16.70;7.57;;;1.50;99.90;;;;;;4850153;29;20240;-72
2023/11/29 07:49:59;;;;;;;14.33;9.27;;;1.60;99.90;;;;;;4882213;29;20472;-72
2023/11/29 07:52:25;;;;;;;11.80;7.67;;;1.80;99.90;;;;;;4835588;29;20566;-73
2023/11/29 07:54:51;;;;;;;12.30;8.47;;;2.00;99.90;;;;;;4884810;29;20221;-74
2023/11/29 07:57:17;;;;;;;10.83;7.43;;;2.20;99.90;;;;;;4834106;29;20185;-75
2023/11/29 07:59:44;;;;;;;16.50;10.00;;;2.30;99.90;;;;;;4848008;29;20909;-72
2023/11/29 08:02:10;;;;;;;13.43;7.27;;;2.50;99.90;;;;;;4852413;29;20521;-72
2023/11/29 08:04:35;;;;;;;12.37;7.33;;;2.60;99.90;;;;;;4853112;29;20411;-71
2023/11/29 08:07:01;;;;;;;9.70;6.30;;;2.70;99.90;;;;;;4850634;29;20593;-71
2023/11/29 08:09:26;;;;;;;12.67;8.27;;;2.70;99.90;;;;;;4853377;29;20204;-73
2023/11/29 08:11:52;;;;;;;12.60;8.60;;;2.70;99.90;;;;;;4883160;29;20213;-72
2023/11/29 08:14:18;;;;;;;11.30;7.50;;;2.70;99.90;;;;;;4846852;29;20204;-74
2023/11/29 08:16:43;;;;;;;14.60;8.77;;;2.70;99.90;;;;;;4838458;29;20245;-73
2023/11/29 08:19:09;;;;;;;12.87;9.10;;;2.70;99.90;;;;;;4846991;29;20229;-74
2023/11/29 08:21:35;;;;;;;12.87;8.30;;;2.70;99.90;;;;;;4844871;29;20232;-75
2023/11/29 08:24:01;;;;;;;12.93;8.20;;;2.70;99.90;;;;;;4851890;29;20201;-73
2023/11/29 08:26:27;;;;;;;12.50;7.90;;;2.70;99.90;;;;;;4835480;29;20214;-72
2023/11/29 08:28:52;;;;;;;14.07;7.87;;;2.70;99.90;;;;;;4848197;29;20426;-73
2023/11/29 08:31:18;;;;;;;13.10;9.30;;;2.80;99.90;;;;;;4831008;29;20207;-73
2023/11/29 08:33:44;;;;;;;13.80;8.80;;;2.80;99.90;;;;;;4852934;29;20276;-74
2023/11/29 08:36:11;;;;;;;11.70;7.50;;;2.80;99.90;;;;;;4853835;29;20647;-72
2023/11/29 08:38:37;;;;;;;13.93;8.67;;;2.90;99.90;;;;;;4827022;29;20186;-76
2023/11/29 08:41:03;;;;;;;13.33;8.50;;;2.90;99.90;;;;;;4853363;29;20478;-73
2023/11/29 08:43:28;;;;;;;14.70;8.30;;;3.00;99.90;;;;;;4872352;29;20194;-71
2023/11/29 08:45:54;;;;;;;12.13;9.30;;;3.10;99.90;;;;;;4856930;29;20209;-75
2023/11/29 08:48:20;;;;;;;11.53;7.93;;;3.10;99.90;;;;;;4842915;29;20601;-73
2023/11/29 08:50:45;;;;;;;12.10;7.50;;;3.20;99.90;;;;;;4851999;29;20193;-73
2023/11/29 08:53:11;;;;;;;11.67;8.30;;;3.30;99.90;;;;;;4869042;29;20566;-74
2023/11/29 08:55:42;;;;;;;9.73;7.60;;;3.30;99.90;;;;;;4851098;29;20261;-73
2023/11/29 08:58:08;;;;;;;11.80;8.00;;;3.30;99.90;;;;;;4851089;29;20434;-73
2023/11/29 09:00:33;;;;;;;11.80;8.80;;;3.40;99.90;;;;;;4850836;29;20466;-73
2023/11/29 09:02:59;;;;;;;13.83;7.10;;;3.50;99.90;;;;;;4851264;29;20439;-74
2023/11/29 09:05:27;;;;;;;9.97;7.50;;;3.50;99.90;;;;;;4852241;29;20217;-75
2023/11/29 09:07:54;;;;;;;9.30;7.40;;;3.50;99.90;;;;;;4852026;29;20212;-76
2023/11/29 09:10:19;;;;;;;14.17;6.63;;;3.60;99.90;;;;;;4857609;29;20422;-74
2023/11/29 09:12:45;;;;;;;10.07;7.07;;;3.60;99.90;;;;;;4852829;29;20486;-77
2023/11/29 09:15:11;;;;;;;10.93;6.63;;;3.60;99.90;;;;;;4883868;29;20197;-73
2023/11/29 09:17:40;;;;;;;13.23;7.00;;;3.80;99.90;;;;;;4856963;29;20204;-74
2023/11/29 09:20:07;;;;;;;10.70;5.73;;;3.80;99.90;;;;;;4854938;29;20197;-72
2023/11/29 09:22:33;;;;;;;8.00;6.40;;;4.00;99.90;;;;;;4851054;29;20439;-75
2023/11/29 09:24:59;;;;;;;7.93;5.93;;;4.00;99.90;;;;;;4841221;29;20463;-74
2023/11/29 09:27:25;;;;;;;8.50;5.73;;;4.20;99.90;;;;;;4874606;29;20209;-76
2023/11/29 09:29:50;;;;;;;13.93;6.60;;;4.40;99.90;;;;;;4853630;29;20421;-74
2023/11/29 09:32:16;;;;;;;8.90;6.43;;;4.40;99.90;;;;;;4846103;29;20441;-73
2023/11/29 09:34:42;;;;;;;9.40;5.80;;;4.40;99.90;;;;;;4842235;29;20454;-72
2023/11/29 09:37:07;;;;;;;7.97;5.80;;;4.40;99.90;;;;;;4852894;29;20285;-72
2023/11/29 09:39:33;;;;;;;9.70;5.37;;;4.40;99.90;;;;;;4835018;29;20286;-71
2023/11/29 09:42:03;;;;;;;8.37;5.67;;;4.40;99.90;;;;;;4852735;29;20224;-73
2023/11/29 09:44:32;;;;;;;10.90;6.17;;;4.50;99.90;;;;;;4851238;29;20410;-73
2023/11/29 09:46:59;;;;;;;7.47;4.80;;;4.50;99.90;;;;;;4843862;29;20434;-73
2023/11/29 09:49:27;;;;;;;10.80;5.50;;;4.50;99.90;;;;;;4853366;29;20501;-74
2023/11/29 09:51:53;;;;;;;8.13;5.50;;;4.40;99.90;;;;;;4844713;29;20609;-73
2023/11/29 09:54:19;;;;;;;9.90;5.83;;;4.40;99.90;;;;;;4853516;29;20490;-73
2023/11/29 09:56:44;;;;;;;7.57;5.10;;;4.40;99.90;;;;;;4845363;29;20198;-73
2023/11/29 09:59:10;;;;;;;7.83;5.20;;;4.30;99.90;;;;;;4849764;29;20268;-73
2023/11/29 10:01:37;;;;;;;11.50;5.67;;;4.30;99.90;;;;;;4847377;29;20224;-74
2023/11/29 10:04:05;;;;;;;13.03;5.87;;;4.50;99.90;;;;;;4836747;29;20192;-73
2023/11/29 10:06:31;;;;;;;7.73;6.53;;;4.50;99.90;;;;;;4847803;29;20485;-72
2023/11/29 10:08:58;;;;;;;6.93;4.90;;;4.60;99.90;;;;;;4852142;29;20423;-73
2023/11/29 10:11:25;;;;;;;19.70;11.47;;;4.60;99.90;;;;;;4853682;29;20419;-76
2023/11/29 10:13:51;;;;;;;6.13;4.87;;;4.60;99.90;;;;;;4870735;29;20434;-77
2023/11/29 10:16:20;;;;;;;8.03;5.63;;;4.60;99.90;;;;;;4858009;29;20453;-72
2023/11/29 10:18:47;;;;;;;6.93;5.20;;;4.50;99.90;;;;;;4852730;29;20426;-74
2023/11/29 10:21:13;;;;;;;10.83;5.07;;;4.50;99.90;;;;;;4836775;29;20465;-74
2023/11/29 10:23:44;;;;;;;8.00;6.27;;;4.50;99.90;;;;;;4855367;29;20422;-75
2023/11/29 10:26:10;;;;;;;10.73;7.73;;;4.50;99.90;;;;;;4856632;29;20453;-77
2023/11/29 10:28:36;;;;;;;5.90;4.87;;;4.50;99.90;;;;;;4845466;29;20457;-75
2023/11/29 10:31:03;;;;;;;9.37;5.60;;;4.50;99.90;;;;;;4821255;29;20440;-75
2023/11/29 10:33:31;;;;;;;6.97;4.40;;;4.50;99.90;;;;;;4843189;29;20220;-74
2023/11/29 10:36:00;;;;;;;6.73;4.90;;;4.50;99.90;;;;;;4854625;29;20454;-77
2023/11/29 10:38:28;;;;;;;8.60;4.73;;;4.50;99.90;;;;;;4838692;29;20438;-76
2023/11/29 10:40:56;;;;;;;11.80;6.40;;;4.50;99.90;;;;;;4852869;29;20518;-75
2023/11/29 10:43:29;;;;;;;7.73;4.90;;;4.60;99.90;;;;;;4853610;29;20430;-74
2023/11/29 10:46:14;;;;;;;5.73;5.13;;;4.60;99.90;;;;;;4852199;29;20455;-75
2023/11/29 10:48:43;;;;;;;11.47;8.13;;;4.60;99.90;;;;;;4882039;29;20479;-76
2023/11/29 10:51:12;;;;;;;11.33;6.67;;;4.50;99.90;;;;;;4852499;29;20851;-74
2023/11/29 10:53:38;;;;;;;6.77;5.37;;;4.50;99.90;;;;;;4851893;29;20502;-75
2023/11/29 10:56:04;;;;;;;9.63;6.13;;;4.50;99.90;;;;;;4855750;29;20442;-75
2023/11/29 10:58:38;;;;;;;8.40;5.60;;;4.60;99.90;;;;;;4855452;29;20457;-74
2023/11/29 11:01:05;;;;;;;6.13;4.57;;;4.70;99.90;;;;;;4854522;29;20544;-72
2023/11/29 11:03:46;;;;;;;8.47;5.77;;;4.70;99.90;;;;;;4882658;29;20430;-73
2023/11/29 11:06:21;;;;;;;7.70;5.70;;;4.70;99.90;;;;;;4837245;29;20486;-75
2023/11/29 11:08:48;;;;;;;9.07;5.80;;;4.80;99.90;;;;;;4852915;29;20422;-74
2023/11/29 11:11:45;;;;;;;9.47;4.97;;;4.80;99.90;;;;;;4853627;29;20450;-73
2023/11/29 11:14:25;;;;;;;6.30;5.10;;;4.70;99.90;;;;;;4849908;29;20487;-75
2023/11/29 11:17:03;;;;;;;7.33;5.60;;;4.70;99.90;;;;;;4853615;29;20426;-73
2023/11/29 11:19:42;;;;;;;8.80;5.60;;;4.70;99.90;;;;;;4838353;29;20425;-73
2023/11/29 11:22:15;;;;;;;8.00;6.93;;;4.70;99.90;;;;;;4862725;29;20510;-73
2023/11/29 11:24:56;;;;;;;10.57;6.20;;;4.70;99.90;;;;;;4856186;29;20449;-76
2023/11/29 11:27:38;;;;;;;8.27;6.33;;;4.70;99.90;;;;;;4836563;29;20522;-74
2023/11/29 11:30:25;;;;;;;8.77;6.17;;;4.60;99.90;;;;;;4856602;29;20422;-76
2023/11/29 11:32:56;;;;;;;7.90;5.83;;;4.60;99.90;;;;;;4856172;29;20430;-75
2023/11/29 11:35:27;;;;;;;6.87;6.13;;;4.50;99.90;;;;;;4847217;29;20450;-75
2023/11/29 11:38:10;;;;;;;10.00;7.20;;;4.50;99.90;;;;;;4850732;29;20430;-74
2023/11/29 11:40:38;;;;;;;11.10;6.07;;;4.40;99.90;;;;;;4856437;29;20461;-77
2023/11/29 11:43:04;;;;;;;9.87;6.10;;;4.30;99.90;;;;;;4854740;29;20422;-74
2023/11/29 11:45:34;;;;;;;7.37;6.03;;;4.30;99.90;;;;;;4853622;29;20454;-73
2023/11/29 11:48:08;;;;;;;9.50;6.70;;;4.30;99.90;;;;;;4854567;29;20423;-75
2023/11/29 11:50:34;;;;;;;7.30;5.20;;;4.30;99.90;;;;;;4856352;29;20473;-77
2023/11/29 11:53:03;;;;;;;6.00;4.90;;;4.20;99.90;;;;;;4861088;29;20422;-76
2023/11/29 11:55:29;;;;;;;6.30;4.40;;;4.20;99.90;;;;;;4855461;29;20954;-77
2023/11/29 11:57:58;;;;;;;7.57;5.50;;;4.20;99.90;;;;;;4842760;29;20423;-77
2023/11/29 12:00:25;;;;;;;9.50;6.50;;;4.20;99.90;;;;;;4841122;29;20462;-75
2023/11/29 12:02:51;;;;;;;9.23;6.20;;;4.20;99.90;;;;;;4871553;29;20493;-76
2023/11/29 12:05:17;;;;;;;5.27;4.77;;;4.10;99.90;;;;;;4855395;29;20466;-76
2023/11/29 12:07:44;;;;;;;7.10;5.07;;;4.10;99.90;;;;;;4838036;29;20462;-76
2023/11/29 12:10:12;;;;;;;8.50;6.67;;;4.10;99.90;;;;;;4856575;29;20446;-76
2023/11/29 12:12:38;;;;;;;9.23;5.50;;;4.10;99.90;;;;;;4871402;29;20435;-76
2023/11/29 12:15:05;;;;;;;5.57;5.00;;;4.10;99.90;;;;;;4870683;29;20558;-76
2023/11/29 12:17:35;;;;;;;7.50;5.33;;;4.10;99.90;;;;;;4855451;29;20445;-76
2023/11/29 12:20:05;;;;;;;6.13;4.83;;;4.00;99.90;;;;;;4855880;29;20485;-78
2023/11/29 12:22:31;;;;;;;5.80;4.50;;;4.00;99.90;;;;;;4860404;29;20466;-75
2023/11/29 12:24:57;;;;;;;6.83;5.20;;;4.00;99.90;;;;;;4829802;29;20450;-75
2023/11/29 12:27:26;;;;;;;7.10;5.20;;;4.00;99.90;;;;;;4860322;29;20482;-76
2023/11/29 12:29:58;;;;;;;7.93;4.47;;;4.00;99.90;;;;;;4856429;29;20212;-76
2023/11/29 12:32:28;;;;;;;5.93;5.23;;;4.10;99.90;;;;;;4861102;29;20419;-75
2023/11/29 12:34:56;;;;;;;8.13;4.97;;;4.10;99.90;;;;;;4860189;29;20454;-76
2023/11/29 12:37:23;;;;;;;6.20;4.90;;;4.10;99.90;;;;;;4861323;29;20434;-77
2023/11/29 12:39:50;;;;;;;5.90;4.53;;;4.00;99.90;;;;;;4861725;29;20430;-76
2023/11/29 12:42:16;;;;;;;5.43;4.50;;;4.00;99.90;;;;;;4860835;29;20446;-77
2023/11/29 12:44:42;;;;;;;6.33;5.03;;;4.00;99.90;;;;;;4859904;29;20470;-76
2023/11/29 12:47:08;;;;;;;8.97;4.47;;;4.00;99.90;;;;;;4860282;29;20797;-76
2023/11/29 12:49:34;;;;;;;5.20;4.53;;;4.00;99.90;;;;;;4845399;29;20430;-78